createdAt,value
2023-01-23T00:00:15.400Z,20.25
2023-01-23T00:02:43.345Z,17.25
2023-01-23T00:05:11.998Z,19.80
2023-01-23T00:07:39.809Z,17.80
2023-01-23T00:10:10.868Z,19.13
2023-01-23T00:12:41.701Z,19.63
2023-01-23T00:15:10.504Z,16.98
2023-01-23T00:17:38.445Z,16.38
2023-01-23T00:20:07.261Z,13.95
2023-01-23T00:22:35.095Z,14.82
2023-01-23T00:25:02.938Z,17.85
2023-01-23T00:27:32.341Z,15.57
2023-01-23T00:30:00.180Z,13.82
2023-01-23T00:32:28.957Z,13.80
2023-01-23T00:34:56.772Z,13.68
2023-01-23T00:37:24.554Z,15.40
2023-01-23T00:39:52.338Z,14.70
2023-01-23T00:42:20.172Z,14.95
2023-01-23T00:44:49.290Z,15.85
2023-01-23T00:47:17.108Z,14.40
2023-01-23T00:49:44.882Z,14.05
2023-01-23T00:52:12.688Z,13.80
2023-01-23T00:54:40.444Z,15.20
2023-01-23T00:57:08.252Z,15.35
2023-01-23T00:59:36.069Z,14.77
2023-01-23T01:02:05.240Z,14.10
2023-01-23T01:04:33.055Z,13.77
2023-01-23T01:07:00.872Z,14.20
2023-01-23T01:09:28.725Z,14.68
2023-01-23T01:11:56.652Z,14.02
2023-01-23T01:14:24.473Z,14.23
2023-01-23T01:16:52.301Z,13.65
2023-01-23T01:19:21.453Z,13.73
2023-01-23T01:21:49.248Z,13.02
2023-01-23T01:24:17.068Z,14.52
2023-01-23T01:26:44.863Z,13.30
2023-01-23T01:29:12.663Z,14.18
2023-01-23T01:31:40.485Z,15.40
2023-01-23T01:34:08.300Z,15.48
2023-01-23T01:36:37.528Z,14.32
2023-01-23T01:39:05.378Z,14.43
2023-01-23T01:41:33.213Z,14.77
2023-01-23T01:44:00.993Z,15.30
2023-01-23T01:46:29.815Z,14.95
2023-01-23T01:49:07.457Z,16.83
2023-01-23T01:51:41.203Z,17.98
2023-01-23T01:54:15.282Z,15.90
2023-01-23T01:56:48.138Z,16.77
2023-01-23T01:59:17.476Z,16.63
2023-01-23T02:01:48.521Z,16.75
2023-01-23T02:04:16.662Z,17.25
2023-01-23T02:06:46.144Z,17.17
2023-01-23T02:09:22.301Z,17.42
2023-01-23T02:11:50.412Z,15.63
2023-01-23T02:14:18.331Z,16.88
2023-01-23T02:16:50.997Z,12.77
2023-01-23T02:19:31.929Z,13.77
2023-01-23T02:22:07.559Z,13.90
2023-01-23T02:24:43.847Z,14.52
2023-01-23T02:27:13.021Z,14.13
2023-01-23T02:29:42.384Z,14.55
2023-01-23T02:32:10.728Z,14.90
2023-01-23T02:34:38.789Z,13.73
2023-01-23T02:37:08.088Z,13.95
2023-01-23T02:39:37.110Z,14.23
2023-01-23T02:42:06.007Z,14.50
2023-01-23T02:44:35.169Z,13.60
2023-01-23T02:47:07.911Z,13.10
2023-01-23T02:49:35.724Z,14.20
2023-01-23T02:52:03.534Z,15.80
2023-01-23T02:54:31.677Z,16.08
2023-01-23T02:56:59.995Z,15.38
2023-01-23T02:59:45.089Z,17.10
2023-01-23T03:02:14.534Z,16.58
2023-01-23T03:04:42.681Z,14.63
2023-01-23T03:07:10.571Z,13.65
2023-01-23T03:09:38.406Z,14.60
2023-01-23T03:12:07.217Z,15.07
2023-01-23T03:14:35.019Z,15.55
2023-01-23T03:17:02.895Z,15.13
2023-01-23T03:19:32.236Z,15.30
2023-01-23T03:22:00.573Z,15.20
2023-01-23T03:24:28.443Z,15.95
2023-01-23T03:26:56.254Z,16.27
2023-01-23T03:29:44.068Z,16.40
2023-01-23T03:32:13.496Z,16.25
2023-01-23T03:34:42.831Z,17.73
2023-01-23T03:37:11.894Z,16.17
2023-01-23T03:39:57.213Z,16.02
2023-01-23T03:42:25.038Z,16.25
2023-01-23T03:44:53.396Z,17.00
2023-01-23T03:47:21.736Z,16.95
2023-01-23T03:49:50.930Z,15.20
2023-01-23T03:52:18.738Z,16.33
2023-01-23T03:54:46.527Z,15.90
2023-01-23T03:57:14.308Z,17.38
2023-01-23T03:59:42.114Z,15.43
2023-01-23T04:02:10.230Z,15.48
2023-01-23T04:04:38.035Z,16.40
2023-01-23T04:07:08.237Z,16.02
2023-01-23T04:09:36.067Z,17.52
2023-01-23T04:12:03.999Z,15.57
2023-01-23T04:14:37.134Z,16.88
2023-01-23T04:17:05.576Z,16.50
2023-01-23T04:19:33.931Z,17.95
2023-01-23T04:22:02.093Z,17.10
2023-01-23T04:24:31.300Z,17.77
2023-01-23T04:26:59.109Z,16.85
2023-01-23T04:29:26.986Z,17.20
2023-01-23T04:31:54.767Z,17.25
2023-01-23T04:34:22.622Z,16.55
2023-01-23T04:36:50.426Z,15.95
2023-01-23T04:39:18.241Z,16.42
2023-01-23T04:41:47.386Z,15.75
2023-01-23T04:44:21.102Z,16.42
2023-01-23T04:46:49.765Z,16.60
2023-01-23T04:49:18.893Z,16.10
2023-01-23T04:51:48.141Z,16.40
2023-01-23T04:54:16.113Z,17.08
2023-01-23T04:56:44.264Z,18.27
2023-01-23T04:59:15.852Z,17.13
2023-01-23T05:01:43.681Z,17.05
2023-01-23T05:04:11.522Z,15.95
2023-01-23T05:06:39.429Z,17.25
2023-01-23T05:09:07.991Z,17.17
2023-01-23T05:11:35.861Z,17.98
2023-01-23T05:14:03.681Z,19.83
2023-01-23T05:16:32.863Z,17.77
2023-01-23T05:19:00.682Z,18.10
2023-01-23T05:21:28.562Z,17.90
2023-01-23T05:23:56.340Z,16.48
2023-01-23T05:26:24.100Z,16.80
2023-01-23T05:28:51.923Z,17.10
2023-01-23T05:31:19.860Z,17.17
2023-01-23T05:33:49.084Z,16.33
2023-01-23T05:36:18.567Z,15.25
2023-01-23T05:38:46.637Z,16.35
2023-01-23T05:41:14.439Z,15.68
2023-01-23T05:43:42.228Z,17.25
2023-01-23T05:46:10.063Z,17.52
2023-01-23T05:48:37.861Z,15.27
2023-01-23T05:51:07.278Z,15.27
2023-01-23T05:53:35.070Z,15.35
2023-01-23T05:56:07.146Z,15.30
2023-01-23T05:58:34.990Z,15.90
2023-01-23T06:01:03.566Z,15.07
2023-01-23T06:03:31.654Z,17.90
2023-01-23T06:06:01.497Z,16.25
2023-01-23T06:08:30.909Z,17.63
2023-01-23T06:10:59.731Z,18.65
2023-01-23T06:13:27.962Z,17.25
2023-01-23T06:15:56.084Z,16.90
2023-01-23T06:18:24.307Z,19.45
2023-01-23T06:20:57.921Z,17.73
2023-01-23T06:23:25.773Z,18.48
2023-01-23T06:25:55.108Z,18.48
2023-01-23T06:28:22.873Z,19.60
2023-01-23T06:30:50.730Z,18.42
2023-01-23T06:33:18.552Z,17.77
2023-01-23T06:35:46.352Z,19.63
2023-01-23T06:38:14.124Z,18.42
2023-01-23T06:40:41.924Z,19.17
2023-01-23T06:43:11.034Z,20.67
2023-01-23T06:45:38.849Z,19.45
2023-01-23T06:48:07.242Z,22.10
2023-01-23T06:50:35.050Z,20.92
2023-01-23T06:53:02.851Z,20.48
2023-01-23T06:55:30.666Z,21.23
2023-01-23T06:57:58.495Z,21.90
2023-01-23T07:00:28.095Z,20.75
2023-01-23T07:02:58.858Z,22.67
2023-01-23T07:05:26.713Z,22.67
2023-01-23T07:07:54.485Z,23.33
2023-01-23T07:10:23.025Z,23.42
2023-01-23T07:12:51.412Z,22.27
2023-01-23T07:15:19.428Z,23.05
2023-01-23T07:17:48.576Z,22.65
2023-01-23T07:20:16.608Z,23.60
2023-01-23T07:22:45.022Z,23.55
2023-01-23T07:25:12.849Z,24.73
2023-01-23T07:27:41.040Z,23.23
2023-01-23T07:30:10.452Z,22.58
2023-01-23T07:32:38.300Z,21.30
2023-01-23T07:35:09.203Z,21.80
2023-01-23T07:37:37.074Z,21.15
2023-01-23T07:40:05.383Z,22.60
2023-01-23T07:42:33.237Z,20.30
2023-01-23T07:45:01.065Z,19.58
2023-01-23T07:47:28.882Z,18.05
2023-01-23T07:49:56.703Z,16.92
2023-01-23T07:52:25.870Z,19.10
2023-01-23T07:54:53.645Z,17.73
2023-01-23T07:57:21.462Z,18.05
2023-01-23T07:59:49.285Z,17.63
2023-01-23T08:02:17.173Z,17.40
2023-01-23T08:04:44.950Z,16.65
2023-01-23T08:07:12.855Z,16.05
2023-01-23T08:09:41.983Z,16.35
2023-01-23T08:12:09.817Z,17.27
2023-01-23T08:14:37.770Z,15.98
2023-01-23T08:17:06.155Z,16.70
2023-01-23T08:19:34.330Z,15.45
2023-01-23T08:22:02.218Z,16.95
2023-01-23T08:24:30.030Z,16.50
2023-01-23T08:27:00.675Z,16.05
2023-01-23T08:29:28.536Z,16.73
2023-01-23T08:31:56.426Z,17.27
2023-01-23T08:34:24.939Z,15.13
2023-01-23T08:36:52.848Z,16.17
2023-01-23T08:39:21.106Z,15.50
2023-01-23T08:41:48.903Z,17.05
2023-01-23T08:44:18.294Z,16.17
2023-01-23T08:46:47.227Z,16.02
2023-01-23T08:49:15.028Z,16.10
2023-01-23T08:51:42.878Z,15.25
2023-01-23T08:54:10.663Z,14.75
2023-01-23T08:56:38.437Z,16.42
2023-01-23T08:59:06.239Z,14.73
2023-01-23T09:01:35.507Z,15.77
2023-01-23T09:04:03.334Z,15.25
2023-01-23T09:06:31.397Z,15.13
2023-01-23T09:08:59.192Z,15.48
2023-01-23T09:11:27.004Z,14.50
2023-01-23T09:13:54.768Z,14.77
2023-01-23T09:16:22.742Z,14.88
2023-01-23T09:18:51.937Z,15.15
2023-01-23T09:21:19.754Z,15.15
2023-01-23T09:23:47.627Z,14.63
2023-01-23T09:26:17.229Z,15.27
2023-01-23T09:28:46.677Z,14.95
2023-01-23T09:31:15.110Z,15.60
2023-01-23T09:33:43.438Z,14.95
2023-01-23T09:36:12.652Z,15.18
2023-01-23T09:38:40.635Z,14.93
2023-01-23T09:41:11.730Z,14.02
2023-01-23T09:43:45.784Z,14.15
2023-01-23T09:46:20.607Z,14.82
2023-01-23T09:48:53.836Z,13.65
2023-01-23T09:51:28.164Z,12.73
2023-01-23T09:54:00.198Z,13.80
2023-01-23T09:56:36.997Z,13.48
2023-01-23T09:59:16.834Z,13.55
2023-01-23T10:01:44.692Z,13.50
2023-01-23T10:04:15.975Z,13.50
2023-01-23T10:07:05.279Z,14.03
2023-01-23T10:09:46.665Z,13.15
2023-01-23T10:12:29.500Z,13.40
2023-01-23T10:15:24.496Z,13.93
2023-01-23T10:18:00.452Z,14.15
2023-01-23T10:20:44.305Z,13.52
2023-01-23T10:23:26.345Z,14.65
2023-01-23T10:25:54.624Z,13.75
2023-01-23T10:28:30.638Z,14.05
2023-01-23T10:31:02.113Z,13.18
2023-01-23T10:33:38.470Z,13.35
2023-01-23T10:36:17.652Z,13.98
2023-01-23T10:39:00.345Z,13.55
2023-01-23T10:41:28.215Z,14.23
2023-01-23T10:43:57.681Z,13.23
2023-01-23T10:46:32.420Z,14.23
2023-01-23T10:49:02.211Z,12.68
2023-01-23T10:51:36.562Z,14.30
2023-01-23T10:54:29.695Z,12.30
2023-01-23T10:57:00.651Z,13.30
2023-01-23T10:59:32.593Z,12.73
2023-01-23T11:02:04.677Z,13.05
2023-01-23T11:07:08.397Z,12.75
2023-01-23T11:09:49.684Z,12.82
2023-01-23T11:12:20.147Z,14.48
2023-01-23T11:14:48.406Z,12.70
2023-01-23T11:17:22.888Z,14.13
2023-01-23T11:19:53.567Z,13.27
2023-01-23T11:22:36.996Z,12.43
2023-01-23T11:25:30.324Z,12.98
2023-01-23T11:28:00.300Z,13.02
2023-01-23T11:30:39.364Z,13.13
2023-01-23T11:33:15.294Z,14.10
2023-01-23T11:35:54.643Z,13.10
2023-01-23T11:38:31.221Z,13.15
2023-01-23T11:41:00.707Z,12.25
2023-01-23T11:43:28.718Z,13.57
2023-01-23T11:46:10.525Z,13.98
2023-01-23T11:48:59.624Z,10.65
2023-01-23T11:51:37.246Z,14.57
2023-01-23T11:54:19.517Z,13.68
2023-01-23T11:57:00.131Z,12.43
2023-01-23T12:00:02.049Z,13.63
2023-01-23T12:02:58.598Z,8.63
2023-01-23T12:05:51.886Z,13.07
2023-01-23T12:08:28.601Z,13.13
2023-01-23T12:11:13.678Z,13.30
2023-01-23T12:13:59.353Z,13.73
2023-01-23T12:16:36.214Z,13.10
2023-01-23T12:19:22.632Z,13.00
2023-01-23T12:21:57.542Z,12.50
2023-01-23T12:24:41.271Z,12.73
2023-01-23T12:27:20.000Z,12.52
2023-01-23T12:30:09.068Z,12.77
2023-01-23T12:32:52.863Z,13.57
2023-01-23T12:35:32.596Z,13.27
2023-01-23T12:38:15.389Z,12.70
2023-01-23T12:40:47.593Z,12.38
2023-01-23T12:45:51.988Z,12.43
2023-01-23T12:48:28.174Z,12.98
2023-01-23T12:51:02.099Z,14.13
2023-01-23T12:53:32.983Z,13.85
2023-01-23T12:56:07.184Z,11.90
2023-01-23T12:58:37.217Z,12.18
2023-01-23T13:01:25.061Z,12.85
2023-01-23T13:04:02.426Z,12.75
2023-01-23T13:06:57.909Z,12.90
2023-01-23T13:09:37.835Z,12.57
2023-01-23T13:12:20.375Z,12.02
2023-01-23T13:15:13.927Z,11.57
2023-01-23T13:17:40.746Z,12.38
2023-01-23T13:20:44.443Z,11.60
2023-01-23T13:23:29.597Z,12.43
2023-01-23T13:26:36.365Z,12.50
2023-01-23T13:29:07.483Z,11.43
2023-01-23T13:31:40.112Z,12.13
2023-01-23T13:34:37.954Z,12.73
2023-01-23T13:37:45.528Z,12.00
2023-01-23T13:40:23.527Z,12.93
2023-01-23T13:42:51.485Z,12.80
2023-01-23T13:45:27.986Z,13.48
2023-01-23T14:22:36.698Z,13.73
2023-01-23T14:25:15.855Z,13.00
2023-01-23T14:27:52.852Z,12.95
2023-01-23T14:30:24.687Z,12.77
2023-01-23T14:32:52.548Z,13.45
2023-01-23T14:35:25.414Z,13.65
2023-01-23T14:37:55.122Z,14.05
2023-01-23T14:40:28.114Z,13.25
2023-01-23T14:43:00.819Z,13.23
2023-01-23T14:45:32.907Z,14.20
2023-01-23T14:48:06.439Z,13.35
2023-01-23T14:50:34.722Z,13.02
2023-01-23T14:53:04.923Z,12.70
2023-01-23T14:55:38.389Z,13.05
2023-01-23T14:58:07.583Z,12.95
2023-01-23T15:00:36.551Z,13.10
2023-01-23T15:03:05.345Z,14.63
2023-01-23T15:05:33.491Z,12.60
2023-01-23T15:08:04.260Z,12.95
2023-01-23T15:10:36.380Z,13.05
2023-01-23T15:13:09.913Z,12.88
2023-01-23T15:15:37.837Z,12.57
2023-01-23T15:18:20.483Z,13.73
2023-01-23T15:20:54.486Z,13.40
2023-01-23T15:23:28.385Z,13.23
2023-01-23T15:26:32.687Z,13.05
2023-01-23T15:29:03.834Z,13.23
2023-01-23T15:31:33.636Z,13.68
2023-01-23T15:34:30.777Z,14.15
2023-01-23T15:37:06.548Z,13.77
2023-01-23T15:39:39.146Z,13.00
2023-01-23T15:42:27.176Z,13.15
2023-01-23T15:44:55.061Z,12.77
2023-01-23T15:47:22.917Z,12.65
2023-01-23T15:49:50.705Z,13.05
2023-01-23T15:52:22.298Z,11.77
2023-01-23T15:54:51.826Z,12.40
2023-01-23T15:57:20.947Z,13.57
2023-01-23T15:59:49.067Z,11.88
2023-01-23T16:02:29.964Z,12.07
2023-01-23T16:04:58.637Z,12.18
2023-01-23T16:07:31.122Z,13.15
2023-01-23T16:09:59.156Z,12.15
2023-01-23T16:12:29.882Z,12.13
2023-01-23T16:14:58.404Z,12.40
2023-01-23T16:17:26.208Z,12.43
2023-01-23T16:19:54.373Z,11.75
2023-01-23T16:22:26.382Z,13.18
2023-01-23T16:24:54.782Z,13.77
2023-01-23T16:27:27.264Z,11.93
2023-01-23T16:29:57.217Z,13.93
2023-01-23T16:32:25.947Z,13.75
2023-01-23T16:34:53.784Z,14.15
2023-01-23T16:37:21.614Z,13.82
2023-01-23T16:39:49.409Z,13.45
2023-01-23T16:42:21.032Z,14.13
2023-01-23T16:44:48.952Z,13.93
2023-01-23T16:47:18.326Z,14.40
2023-01-23T16:49:52.751Z,14.30
2023-01-23T16:52:22.627Z,13.52
2023-01-23T16:54:53.091Z,15.07
2023-01-23T16:57:21.856Z,14.75
2023-01-23T16:59:50.854Z,15.95
2023-01-23T17:02:23.099Z,16.25
2023-01-23T17:04:51.222Z,17.75
2023-01-23T17:07:20.002Z,16.45
2023-01-23T17:09:49.157Z,16.73
2023-01-23T17:12:20.858Z,18.27
2023-01-23T17:14:50.014Z,16.77
2023-01-23T17:17:25.910Z,15.82
2023-01-23T17:19:55.059Z,17.45
2023-01-23T17:22:26.155Z,17.98
2023-01-23T17:24:54.038Z,16.77
2023-01-23T17:27:21.788Z,17.98
2023-01-23T17:29:49.924Z,17.70
2023-01-23T17:32:30.682Z,18.05
2023-01-23T17:35:01.756Z,17.77
2023-01-23T17:37:30.909Z,16.45
2023-01-23T17:39:58.672Z,16.75
2023-01-23T17:42:26.461Z,16.80
2023-01-23T17:44:54.243Z,15.68
2023-01-23T17:47:23.654Z,16.52
2023-01-23T17:49:54.430Z,17.88
2023-01-23T17:52:22.669Z,17.95
2023-01-23T17:54:50.751Z,17.40
2023-01-23T17:57:18.597Z,16.70
2023-01-23T17:59:46.408Z,16.77
2023-01-23T18:02:27.922Z,17.83
2023-01-23T18:04:55.955Z,16.80
2023-01-23T18:07:23.742Z,17.05
2023-01-23T18:09:52.406Z,18.10
2023-01-23T18:12:29.459Z,17.38
2023-01-23T18:15:05.172Z,18.23
2023-01-23T18:17:44.673Z,17.77
2023-01-23T18:20:18.888Z,17.85
2023-01-23T18:22:47.311Z,18.30
2023-01-23T18:25:16.729Z,17.33
2023-01-23T18:27:49.971Z,18.52
2023-01-23T18:30:30.516Z,18.08
2023-01-23T18:33:27.068Z,19.17
2023-01-23T18:36:13.714Z,19.20
2023-01-23T18:38:57.325Z,19.67
2023-01-23T18:41:27.060Z,18.65
2023-01-23T18:44:02.466Z,19.42
2023-01-23T18:46:34.640Z,18.65
2023-01-23T18:49:04.628Z,19.05
2023-01-23T18:51:39.753Z,20.17
2023-01-23T18:54:29.157Z,19.73
2023-01-23T18:57:08.412Z,19.83
2023-01-23T18:59:43.171Z,19.08
2023-01-23T19:02:23.177Z,18.40
2023-01-23T19:04:56.522Z,19.55
2023-01-23T19:07:24.716Z,18.42
2023-01-23T19:09:53.075Z,18.58
2023-01-23T19:12:30.106Z,19.17
2023-01-23T19:15:09.537Z,19.60
2023-01-23T19:17:44.001Z,18.00
2023-01-23T19:20:22.966Z,19.08
2023-01-23T19:23:06.871Z,19.40
2023-01-23T19:25:35.198Z,20.35
2023-01-23T19:28:03.725Z,19.75
2023-01-23T19:30:32.326Z,19.90
2023-01-23T19:33:00.144Z,19.35
2023-01-23T19:35:29.637Z,19.40
2023-01-23T19:37:57.556Z,18.23
2023-01-23T19:40:25.353Z,18.00
2023-01-23T19:43:13.203Z,19.15
2023-01-23T19:45:42.144Z,17.58
2023-01-23T19:48:09.981Z,17.98
2023-01-23T19:50:39.709Z,18.10
2023-01-23T19:53:07.757Z,16.67
2023-01-23T19:55:38.223Z,17.58
2023-01-23T19:58:06.402Z,17.05
2023-01-23T20:00:36.047Z,17.25
2023-01-23T20:03:05.206Z,17.90
2023-01-23T20:05:33.390Z,18.55
2023-01-23T20:08:02.486Z,18.17
2023-01-23T20:10:30.303Z,18.00
2023-01-23T20:12:58.141Z,18.33
2023-01-23T20:15:27.558Z,17.73
2023-01-23T20:17:55.750Z,16.70
2023-01-23T20:20:24.109Z,16.20
2023-01-23T20:22:52.083Z,18.25
2023-01-23T20:25:21.573Z,18.90
2023-01-23T20:27:49.616Z,19.05
2023-01-23T20:30:20.285Z,18.55
2023-01-23T20:32:49.079Z,18.98
2023-01-23T20:35:17.084Z,18.77
2023-01-23T20:37:44.918Z,18.10
2023-01-23T20:40:13.211Z,19.65
2023-01-23T20:42:42.489Z,19.50
2023-01-23T20:45:11.024Z,18.83
2023-01-23T20:47:38.918Z,18.60
2023-01-23T20:50:07.414Z,18.63
2023-01-23T20:52:52.627Z,17.55
2023-01-23T20:55:20.768Z,19.05
2023-01-23T20:58:07.362Z,18.90
2023-01-23T21:00:35.153Z,18.08
2023-01-23T21:03:03.096Z,18.17
2023-01-23T21:05:30.903Z,18.85
2023-01-23T21:07:58.716Z,18.15
2023-01-23T21:10:26.786Z,20.30
2023-01-23T21:12:56.005Z,19.38
2023-01-23T21:15:24.140Z,19.45
2023-01-23T21:17:51.982Z,19.48
2023-01-23T21:20:19.897Z,18.63
2023-01-23T21:22:48.055Z,18.95
2023-01-23T21:25:15.869Z,18.48
2023-01-23T21:27:43.679Z,19.52
2023-01-23T21:30:13.798Z,19.63
2023-01-23T21:32:41.904Z,18.50
2023-01-23T21:35:10.529Z,19.73
2023-01-23T21:37:38.382Z,19.13
2023-01-23T21:40:07.631Z,20.50
2023-01-23T21:42:35.427Z,18.83
2023-01-23T21:45:03.248Z,19.17
2023-01-23T21:47:32.399Z,19.85
2023-01-23T21:50:00.207Z,19.38
2023-01-23T21:52:29.582Z,19.58
2023-01-23T21:54:57.654Z,20.50
2023-01-23T21:57:25.547Z,19.45
2023-01-23T22:00:07.281Z,20.13
2023-01-23T22:02:36.504Z,20.98
2023-01-23T22:05:04.384Z,19.73
2023-01-23T22:07:32.182Z,20.13
2023-01-23T22:09:59.987Z,21.10
2023-01-23T22:12:28.886Z,20.95
2023-01-23T22:14:56.749Z,20.15
2023-01-23T22:17:24.664Z,20.75
2023-01-23T22:19:53.836Z,20.88
2023-01-23T22:22:21.601Z,20.98
2023-01-23T22:24:49.603Z,21.80
2023-01-23T22:27:17.848Z,22.10
2023-01-23T22:29:45.648Z,20.35
2023-01-23T22:32:13.535Z,20.67
2023-01-23T22:34:41.348Z,20.90
2023-01-23T22:37:10.471Z,22.30
2023-01-23T22:39:38.293Z,21.80
2023-01-23T22:42:06.164Z,22.08
2023-01-23T22:44:33.990Z,20.23
2023-01-23T22:47:01.827Z,21.38
2023-01-23T22:49:29.722Z,21.70
2023-01-23T22:51:58.745Z,20.45
2023-01-23T22:54:28.052Z,23.30
2023-01-23T22:56:55.852Z,21.77
2023-01-23T22:59:23.763Z,23.75
2023-01-23T23:01:51.556Z,22.45
2023-01-23T23:04:19.348Z,20.85
2023-01-23T23:06:47.147Z,21.98
2023-01-23T23:09:15.291Z,21.58
2023-01-23T23:11:47.320Z,21.83
2023-01-23T23:14:15.102Z,21.65
2023-01-23T23:16:42.910Z,23.02
2023-01-23T23:19:11.715Z,20.83
2023-01-23T23:21:39.942Z,22.27
2023-01-23T23:24:09.632Z,23.83
2023-01-23T23:26:37.596Z,23.55
2023-01-23T23:29:07.101Z,22.58
2023-01-23T23:31:35.233Z,22.75
2023-01-23T23:34:03.219Z,20.90
2023-01-23T23:36:31.213Z,23.42
2023-01-23T23:39:00.318Z,24.17
2023-01-23T23:41:28.465Z,22.27
2023-01-23T23:43:56.246Z,21.40
2023-01-23T23:46:25.373Z,22.10
2023-01-23T23:48:53.208Z,20.90
2023-01-23T23:51:22.731Z,24.05
2023-01-23T23:53:50.799Z,23.75
2023-01-23T23:56:21.545Z,22.35
2023-01-23T23:58:49.618Z,21.70
